KINL

Falls International-Einarson Field Airport

International Falls, Minnesota, USA
METAR KINL 230255Z AUTO 00000KT 10SM CLR 13/09 A3001 RMK AO2 SLP165 T01280094 53010
Observed Flight Rules
May-23 @ 02:55 UTC (25 minutes ago) Visual Flight Rules
Visibility Clouds
10 miles
  • Clear skies
Temperatures Readings
Current 13°C / 55°F
Dewpoint 9°C / 48°F
Humidity 77%
Altimeter 30.01" Hg
Pressure 1016.5 hPa
Elevation 360
METAR KINL 230255Z AUTO 00000KT 10SM CLR 13/09 A3001 RMK AO2 SLP165 T01280094 53010
Observed Flight Rules
May-23 @ 02:55 UTC
(25 minutes ago)
VFR
Clouds
  • Clear skies
Temperature Dewpoint
13°C / 55°F 9°C / 48°F
Humidity Altimeter Pressure
77% 30.01" Hg 1016.5 hPa